Latest Weather Observations for Glen Innes Airport

IDN60801

Issued at 5:42 am EST Friday 26 April 2019 (issued every 10 minutes, with the page automatically refreshed every 10 minutes)

About weather observations | Map of weather stations | Latest weather observations for NSW | Other Formats
Station Details ID: 056243 Name: GLEN INNES AIRPORT AWS Lat: -29.68 Lon: 151.69 Height: 1044.3 m
Data from the previous 72 hours. | See also: Recent months at Glen Innes Airport
Date/Time
EST
Temp
°C
App
Temp
°C
Dew
Point
°C
Rel
Hum
%
Delta-T
°C
Wind Press
QNH
hPa
Press
MSL
hPa
Rain since
9am
mm
Dir  Spd
km/h
Gust
km/h
Spd
kts
Gust
kts
26/05:30am 6.7 4.6 5.7 93 0.5 SE 6 7 3 4 1021.2 1018.1 0.2
26/05:00am 7.9 6.0 6.8 93 0.5 SE 6 7 3 4 1021.2 1018.1 0.2
26/04:30am 9.4 7.4 8.5 94 0.5 SSE 9 9 5 5 1020.9 1017.9 0.2
26/04:00am 10.8 9.5 10.0 95 0.4 SE 7 11 4 6 1021.2 1018.1 0.0
26/03:30am 10.8 9.1 10.0 95 0.4 ESE 9 11 5 6 1021.3 1018.2 0.0
26/03:00am 11.4 9.9 10.6 95 0.4 SE 9 11 5 6 1021.3 1018.2 0.0
26/02:30am 11.7 9.9 10.9 95 0.4 SE 11 13 6 7 1021.6 1018.6 0.0
26/02:00am 12.0 10.3 11.2 95 0.4 SE 11 13 6 7 1021.9 1018.9 0.0
26/01:30am 12.2 10.9 11.4 95 0.4 ESE 9 11 5 6 1022.3 1019.3 0.0
26/01:00am 12.3 11.4 11.5 95 0.4 SE 7 13 4 7 1022.5 1019.5 0.0
26/12:30am 12.3 10.3 11.5 95 0.4 ESE 13 15 7 8 1022.6 1019.6 0.0
26/12:16am 12.4 10.4 11.6 95 0.4 SE 13 17 7 9 1022.6 1019.6 0.0
26/12:02am 11.2 9.3 10.4 95 0.4 ESE 11 13 6 7 1022.7 1019.7 0.0
26/12:00am 11.2 9.3 10.4 95 0.4 ESE 11 13 6 7 1022.7 1019.7 0.0
 
Date/Time
EST
Temp
°C
App
Temp
°C
Dew
Point
°C
Rel
Hum
%
Delta-T
°C
Wind Press
QNH
hPa
Press
MSL
hPa
Rain since
9am
mm
Dir  Spd
km/h
Gust
km/h
Spd
kts
Gust
kts
25/11:41pm 9.6 7.6 8.5 93 0.6 SE 9 13 5 7 1022.8 1019.8 0.0
25/11:30pm 10.4 9.2 9.5 94 0.5 SE 6 9 3 5 1022.9 1019.9 0.0
25/11:00pm 11.1 9.9 10.2 94 0.5 SE 7 9 4 5 1023.1 1020.2 0.0
25/10:44pm 10.4 8.6 9.5 94 0.5 SSE 9 13 5 7 1023.1 1020.2 0.0
25/10:30pm 10.5 8.4 9.6 94 0.5 SSE 11 13 6 7 1023.1 1020.2 0.0
25/10:24pm 10.7 8.6 9.8 94 0.5 SSE 11 13 6 7 1023.1 1020.2 0.0
25/10:00pm 9.7 8.0 8.5 92 0.6 ESE 7 9 4 5 1023.3 1020.3 0.0
25/09:30pm 10.6 8.4 9.5 93 0.6 SE 11 13 6 7 1023.3 1020.3 0.0
25/09:00pm 11.1 9.0 9.7 91 0.7 SE 11 13 6 7 1023.3 1020.3 0.0
25/08:30pm 11.6 9.9 9.9 89 0.9 SE 9 11 5 6 1023.1 1020.2 0.0
25/08:00pm 12.6 11.1 10.5 87 1.1 ESE 9 13 5 7 1022.9 1019.9 0.0
25/07:30pm 13.3 11.5 11.0 86 1.3 SE 11 13 6 7 1022.9 1019.9 0.0
25/07:00pm 14.0 11.9 11.0 82 1.7 ESE 13 15 7 8 1022.5 1019.5 0.0
25/06:30pm 15.1 13.0 11.3 78 2.1 ESE 13 17 7 9 1022.3 1019.3 0.0
25/06:00pm 16.8 14.3 11.1 69 3.2 ESE 15 20 8 11 1021.8 1018.8 0.0
25/05:30pm 18.5 15.6 11.1 62 4.2 E 17 20 9 11 1021.4 1018.3 0.0
25/05:00pm 20.1 16.9 9.9 52 5.7 E 17 20 9 11 1021.2 1018.1 0.0
25/04:30pm 21.0 18.7 8.9 46 6.7 SE 11 19 6 10 1020.8 1017.8 0.0
25/04:00pm 22.4 20.0 8.5 41 7.7 W 11 15 6 8 1020.7 1017.7 0.0
25/03:30pm 22.2 20.6 8.0 40 7.8 NW 6 13 3 7 1020.8 1017.8 0.0
25/03:00pm 22.7 20.6 8.4 40 7.9 ENE 9 17 5 9 1020.7 1017.7 0.0
25/02:30pm 21.8 20.2 8.0 41 7.6 NNW 6 9 3 5 1020.9 1017.9 0.0
25/02:00pm 21.4 18.9 8.3 43 7.2 NE 11 13 6 7 1021.2 1018.1 0.0
25/01:30pm 21.7 20.1 7.9 41 7.6 WSW 6 9 3 5 1021.4 1018.3 0.0
25/01:00pm 21.9 19.3 7.7 40 7.8 SE 11 19 6 10 1021.7 1018.7 0.0
25/12:30pm 22.0 20.3 8.2 41 7.6 W 7 15 4 8 1022.2 1019.1 0.0
25/12:00pm 21.2 19.2 8.8 45 6.9 SSW 9 15 5 8 1023.0 1020.0 0.0
25/11:30am 20.2 18.8 8.8 48 6.3 S 6 11 3 6 1023.6 1020.6 0.0
25/11:00am 19.8 18.0 9.4 51 5.8 E 9 13 5 7 1023.9 1020.9 0.0
25/10:30am 18.8 17.8 10.4 58 4.8 E 6 11 3 6 1024.3 1021.3 0.0
25/10:00am 17.8 16.5 11.1 65 3.8 SSE 9 13 5 7 1024.4 1021.4 0.0
25/09:30am 16.9 16.0 11.4 70 3.1 S 7 11 4 6 1024.6 1021.6 0.0
25/09:00am 15.7 14.4 11.3 75 2.5 SE 9 11 5 6 1024.8 1021.8 0.0
25/08:30am 14.6 13.2 11.0 79 2.0 ESE 9 13 5 7 1024.9 1022.0 0.0
25/08:00am 13.5 12.2 11.4 87 1.2 SSE 9 11 5 6 1024.7 1021.7 0.0
25/07:30am 12.7 11.8 11.3 91 0.8 SE 7 9 4 5 1024.7 1021.7 0.0
25/07:00am 11.9 10.4 10.6 92 0.7 ESE 9 11 5 6 1024.5 1021.5 0.0
25/06:30am 11.4 9.4 10.1 92 0.7 E 11 11 6 6 1024.4 1021.4 0.0
25/06:00am 11.5 9.5 10.1 91 0.8 ESE 11 13 6 7 1024.3 1021.3 0.0
25/05:30am 11.9 10.0 10.6 92 0.7 SE 11 17 6 9 1024.0 1021.1 0.0
25/05:00am 11.7 10.2 10.4 92 0.7 ESE 9 11 5 6 1024.0 1021.1 0.0
25/04:30am 11.8 10.3 10.5 92 0.7 SE 9 11 5 6 1023.8 1020.8 0.0
25/04:00am 11.7 11.1 10.3 91 0.8 SE 4 7 2 4 1024.0 1021.1 0.0
25/03:30am 11.9 10.0 10.6 92 0.7 SE 11 13 6 7 1023.8 1020.8 0.0
25/03:00am 12.0 10.5 10.7 92 0.7 ESE 9 13 5 7 1023.9 1020.9 0.0
25/02:30am 12.3 10.5 11.0 92 0.7 SE 11 13 6 7 1024.1 1021.2 0.0
25/02:23am 12.3 10.5 11.0 92 0.7 SE 11 13 6 7 1024.3 1021.3 0.0
25/02:00am 12.5 11.2 11.2 92 0.7 SE 9 13 5 7 1024.5 1021.5 0.0
25/01:30am 12.1 10.7 10.8 92 0.7 SE 9 11 5 6 1024.8 1021.8 0.0
25/01:16am 12.0 10.9 10.6 91 0.8 ESE 7 9 4 5 1024.7 1021.7 0.0
25/01:00am 11.9 10.7 10.3 90 0.9 SE 7 9 4 5 1024.9 1022.0 0.0
25/12:58am 12.0 11.0 10.4 90 0.9 SE 6 7 3 4 1025.0 1022.1 0.0
25/12:30am 12.3 10.9 10.9 91 0.8 ESE 9 9 5 5 1025.1 1022.2 0.0
25/12:00am 12.3 10.5 11.0 92 0.7 SE 11 13 6 7 1025.3 1022.3 0.0
 
Date/Time
EST
Temp
°C
App
Temp
°C
Dew
Point
°C
Rel
Hum
%
Delta-T
°C
Wind Press
QNH
hPa
Press
MSL
hPa
Rain since
9am
mm
Dir  Spd
km/h
Gust
km/h
Spd
kts
Gust
kts
24/11:30pm 11.6 9.3 10.5 93 0.6 SE 13 15 7 8 1025.4 1022.4 0.0
24/11:27pm 11.5 9.6 10.4 93 0.6 SE 11 15 6 8 1025.5 1022.5 0.0
24/11:00pm 10.9 9.5 9.5 91 0.7 SE 7 7 4 4 1025.3 1022.3 0.0
24/10:30pm 11.6 9.2 9.9 89 0.9 ESE 13 15 7 8 1025.3 1022.3 0.0
24/10:00pm 12.2 10.3 10.4 89 1.0 SE 11 13 6 7 1025.7 1022.8 0.0
24/09:30pm 12.5 10.3 10.7 89 1.0 ESE 13 15 7 8 1025.9 1023.0 0.0
24/09:00pm 12.2 9.1 10.4 89 1.0 SE 17 20 9 11 1026.1 1023.2 0.0
24/08:30pm 11.7 9.7 10.3 91 0.8 ESE 11 15 6 8 1025.8 1022.9 0.0
24/08:00pm 10.5 8.7 9.3 92 0.6 ESE 9 11 5 6 1025.8 1022.9 0.0
24/07:30pm 9.9 8.3 8.2 89 0.9 SE 6 7 3 4 1025.6 1022.6 0.0
24/07:00pm 9.6 6.9 7.5 87 1.1 SE 11 13 6 7 1025.5 1022.5 0.0
24/06:30pm 10.5 7.9 7.7 83 1.4 SE 11 13 6 7 1025.6 1022.6 0.0
24/06:00pm 12.2 10.3 8.9 80 1.7 E 9 11 5 6 1025.1 1022.2 0.0
24/05:30pm 13.9 12.2 9.7 76 2.3 E 9 11 5 6 1025.3 1022.3 0.0
24/05:00pm 14.6 12.5 9.6 72 2.7 E 11 13 6 7 1025.1 1022.2 0.0
24/04:30pm 15.0 11.8 9.8 71 2.8 E 17 22 9 12 1025.0 1022.1 0.0
24/04:00pm 15.4 11.9 10.8 74 2.6 ENE 20 26 11 14 1024.9 1022.0 0.0
24/03:30pm 15.6 12.1 11.0 74 2.6 E 20 28 11 15 1024.8 1021.8 0.0
24/03:00pm 16.3 12.5 11.0 71 3.0 ESE 22 28 12 15 1025.3 1022.3 0.0
24/02:30pm 15.8 11.6 11.0 73 2.7 ESE 24 32 13 17 1025.1 1022.2 0.0
24/02:00pm 15.9 11.6 11.9 77 2.3 ESE 26 33 14 18 1024.8 1021.8 0.0
24/01:38pm 17.2 14.1 12.1 72 3.0 ESE 20 28 11 15 1024.8 1021.8 0.0
24/01:30pm 17.1 13.5 11.8 71 3.0 ESE 22 30 12 16 1024.8 1021.8 0.0
24/01:21pm 17.1 13.8 11.6 70 3.2 ESE 20 28 11 15 1024.9 1022.0 0.0
24/01:00pm 17.7 14.5 11.9 69 3.3 ESE 20 30 11 16 1025.1 1022.2 0.0
24/12:30pm 17.5 14.4 11.5 68 3.4 E 19 30 10 16 1025.4 1022.4 0.0
24/12:00pm 17.2 14.2 11.9 71 3.0 E 19 24 10 13 1026.0 1023.1 0.0
24/11:30am 16.5 13.1 11.4 72 2.9 E 20 28 11 15 1026.4 1023.4 0.0
24/11:10am 16.5 13.1 11.4 72 2.9 E 20 26 11 14 1026.8 1023.9 0.0
24/11:00am 16.7 13.1 12.0 74 2.7 E 22 28 12 15 1026.9 1024.0 0.0
24/10:30am 14.7 11.6 11.7 82 1.7 ESE 19 26 10 14 1027.1 1024.2 0.0
24/10:00am 14.6 11.2 11.2 80 1.9 E 20 28 11 15 1027.1 1024.2 0.0
24/09:30am 14.3 10.5 11.3 82 1.7 ESE 22 28 12 15 1027.2 1024.3 0.0
24/09:00am 14.1 10.0 11.3 83 1.6 ESE 24 32 13 17 1027.1 1024.2 0.6
24/08:40am 13.8 9.2 11.1 84 1.5 ESE 26 32 14 17 1027.1 1024.2 0.6
24/08:30am 13.7 10.2 11.0 84 1.5 ESE 20 28 11 15 1027.1 1024.2 0.6
24/08:00am 12.2 8.7 10.1 87 1.1 ESE 19 24 10 13 1027.1 1024.2 0.6
24/07:30am 11.8 8.6 9.9 88 1.0 ESE 17 22 9 12 1026.9 1024.0 0.6
24/07:00am 11.6 8.4 9.9 89 0.9 ESE 17 20 9 11 1026.6 1023.7 0.6
24/06:30am 11.2 8.3 9.8 91 0.8 ESE 15 20 8 11 1026.5 1023.5 0.6
24/06:00am 11.1 8.1 9.2 88 1.0 E 15 17 8 9 1026.1 1023.2 0.6
24/05:31am 11.8 8.0 9.9 88 1.0 E 20 28 11 15 1026.0 1023.1 0.6
24/05:30am 11.8 8.0 9.9 88 1.0 E 20 28 11 15 1026.0 1023.1 0.6
24/05:15am 12.1 8.5 10.7 91 0.8 E 20 26 11 14 1025.8 1022.9 0.6
24/05:00am 12.1 8.6 10.8 92 0.7 ESE 20 26 11 14 1025.9 1023.0 0.6
24/04:54am 12.2 8.7 10.8 91 0.8 ESE 20 30 11 16 1025.9 1023.0 0.6
24/04:30am 12.5 9.1 11.1 91 0.8 ESE 20 26 11 14 1025.6 1022.6 0.6
24/04:00am 12.8 8.7 11.4 91 0.8 ESE 24 32 13 17 1025.1 1022.2 0.6
24/03:30am 12.9 8.8 11.5 91 0.8 ESE 24 35 13 19 1025.1 1022.2 0.6
24/03:00am 13.0 9.7 11.6 91 0.8 ESE 20 28 11 15 1025.6 1022.6 0.6
24/02:41am 12.9 9.6 11.6 92 0.7 ESE 20 30 11 16 1025.5 1022.5 0.6
24/02:30am 12.7 9.6 11.6 93 0.6 ESE 19 26 10 14 1025.5 1022.5 0.6
24/02:04am 12.8 8.7 11.4 91 0.8 ESE 24 32 13 17 1025.5 1022.5 0.6
24/02:00am 12.9 8.8 11.3 90 0.9 ESE 24 33 13 18 1025.5 1022.5 0.6
24/01:30am 12.8 7.9 11.4 91 0.8 ESE 28 37 15 20 1025.7 1022.8 0.6
24/01:00am 12.7 8.2 11.3 91 0.8 ESE 26 39 14 21 1025.8 1022.9 0.6
24/12:30am 12.8 7.8 11.0 89 1.0 ESE 28 35 15 19 1026.2 1023.3 0.6
24/12:00am 12.8 8.3 11.4 91 0.8 ESE 26 33 14 18 1026.5 1023.5 0.6
 
Date/Time
EST
Temp
°C
App
Temp
°C
Dew
Point
°C
Rel
Hum
%
Delta-T
°C
Wind Press
QNH
hPa
Press
MSL
hPa
Rain since
9am
mm
Dir  Spd
km/h
Gust
km/h
Spd
kts
Gust
kts
23/11:57pm 12.8 8.3 11.4 91 0.8 ESE 26 33 14 18 1026.4 1023.4 0.6
23/11:39pm 12.8 7.5 11.4 91 0.8 ESE 30 39 16 21 1026.6 1023.7 0.6
23/11:30pm 13.0 8.4 11.2 89 1.0 ESE 26 35 14 19 1026.7 1023.8 0.6
23/11:00pm 12.9 9.1 11.1 89 1.0 ESE 22 30 12 16 1027.0 1024.1 0.6
23/10:30pm 12.8 7.9 11.2 90 0.9 ESE 28 37 15 20 1027.0 1024.1 0.6
23/10:00pm 12.5 7.1 10.9 90 0.9 ESE 30 37 16 20 1027.0 1024.1 0.6
23/09:30pm 12.6 8.4 11.2 91 0.8 ESE 24 32 13 17 1027.4 1024.4 0.6
23/09:18pm 12.4 8.1 10.8 90 0.9 ESE 24 33 13 18 1027.5 1024.6 0.6
23/09:16pm 12.4 7.7 10.8 90 0.9 ESE 26 33 14 18 1027.5 1024.6 0.6
23/09:00pm 12.4 7.0 10.8 90 0.9 ESE 30 37 16 20 1027.4 1024.4 0.6
23/08:46pm 12.5 7.5 10.9 90 0.9 ESE 28 37 15 20 1027.6 1024.7 0.6
23/08:30pm 12.3 6.8 10.7 90 0.9 ESE 30 43 16 23 1027.5 1024.6 0.6
23/08:19pm 12.1 7.4 10.5 90 0.9 ESE 26 35 14 19 1027.7 1024.8 0.6
23/08:00pm 12.2 7.9 10.8 91 0.8 ESE 24 32 13 17 1027.9 1025.0 0.6
23/07:42pm 12.4 8.3 11.3 93 0.6 SE 24 33 13 18 1027.7 1024.8 0.6
23/07:30pm 12.4 7.8 11.1 92 0.7 SE 26 32 14 17 1027.7 1024.8 0.6
23/07:25pm 12.5 7.9 11.2 92 0.7 SE 26 32 14 17 1027.6 1024.7 0.6
23/07:00pm 13.1 9.5 11.8 92 0.7 ESE 22 30 12 16 1027.4 1024.4 0.6
23/06:58pm 13.1 9.9 11.8 92 0.7 ESE 20 28 11 15 1027.4 1024.4 0.6
23/06:30pm 13.2 10.2 11.8 91 0.8 E 19 24 10 13 1027.4 1024.4 0.6
23/06:00pm 13.6 10.5 12.3 92 0.7 ESE 20 24 11 13 1027.0 1024.1 0.6
23/05:56pm 13.6 10.5 12.3 92 0.7 ESE 20 24 11 13 1026.9 1024.0 0.6
23/05:49pm 13.7 10.8 12.3 91 0.8 ESE 19 24 10 13 1026.9 1024.0 0.6
23/05:41pm 13.8 10.9 12.4 91 0.8 E 19 24 10 13 1027.0 1024.1 0.4
23/05:30pm 14.1 11.7 12.7 91 0.8 E 17 20 9 11 1027.2 1024.3 0.4
23/05:24pm 14.2 12.3 12.9 92 0.8 ESE 15 19 8 10 1027.2 1024.3 0.4
23/05:16pm 14.3 12.4 12.9 91 0.8 E 15 19 8 10 1027.0 1024.1 0.4
23/05:02pm 14.5 12.3 13.2 92 0.8 ESE 17 20 9 11 1026.7 1023.8 0.4
23/05:00pm 14.5 12.3 13.2 92 0.8 ESE 17 20 9 11 1026.6 1023.7 0.4
23/04:54pm 14.4 12.5 13.1 92 0.8 SE 15 19 8 10 1026.6 1023.7 0.4
23/04:30pm 14.4 11.7 13.0 91 0.8 ESE 19 24 10 13 1026.7 1023.8 0.2
23/04:17pm 14.7 11.7 12.7 88 1.2 E 20 28 11 15 1026.7 1023.8 0.0
23/04:00pm 16.3 13.3 12.1 76 2.4 ESE 19 26 10 14 1026.4 1023.4 0.0
23/03:30pm 17.0 13.9 12.3 74 2.7 ESE 20 24 11 13 1026.0 1023.1 0.0
23/03:00pm 17.2 14.1 11.7 70 3.1 ESE 19 22 10 12 1026.1 1023.2 0.0
23/02:30pm 17.3 14.1 11.3 68 3.4 E 19 26 10 14 1026.1 1023.2 0.0
23/02:00pm 17.5 14.2 10.9 65 3.7 ENE 19 26 10 14 1026.4 1023.4 0.0
23/01:30pm 17.9 14.9 11.9 68 3.5 ENE 19 28 10 15 1026.5 1023.5 0.0
23/01:00pm 17.3 14.4 12.8 75 2.6 E 20 26 11 14 1026.7 1023.8 0.0
23/12:30pm 17.4 13.2 12.5 73 2.9 E 26 32 14 17 1027.1 1024.2 0.0
23/12:00pm 17.7 13.0 11.9 69 3.3 ESE 28 33 15 18 1027.2 1024.3 0.0
23/11:30am 17.7 13.7 11.9 69 3.4 ENE 24 30 13 16 1027.7 1024.8 0.0
23/11:00am 17.0 13.0 11.7 71 3.0 E 24 33 13 18 1028.2 1025.4 0.0
23/10:30am 16.4 12.1 12.0 75 2.5 E 26 33 14 18 1028.3 1025.5 0.0
23/10:00am 15.8 11.8 11.8 77 2.3 E 24 32 13 17 1028.3 1025.5 0.0
23/09:30am 15.1 10.2 11.3 78 2.1 E 28 35 15 19 1028.5 1025.6 0.0
23/09:00am 14.7 9.7 10.9 78 2.1 E 28 39 15 21 1028.3 1025.5 1.0
23/08:47am 14.5 9.5 10.9 79 2.0 E 28 35 15 19 1028.5 1025.6 1.0
23/08:30am 14.4 10.6 11.0 80 1.9 E 22 32 12 17 1028.8 1025.9 1.0
23/08:00am 14.6 11.5 11.7 83 1.6 E 19 28 10 15 1028.3 1025.5 1.0
23/07:37am 13.3 10.4 11.0 86 1.3 ESE 17 22 9 12 1028.2 1025.4 1.0
23/07:36am 13.4 10.5 11.1 86 1.3 ESE 17 22 9 12 1028.2 1025.4 1.0
23/07:30am 13.1 10.1 10.8 86 1.3 ESE 17 22 9 12 1028.1 1025.2 1.0
23/07:19am 12.7 9.4 10.8 88 1.0 ESE 19 24 10 13 1028.1 1025.2 1.0
23/07:00am 12.0 8.5 10.1 88 1.0 ESE 19 26 10 14 1027.9 1025.0 1.0
23/06:35am 12.2 8.5 10.3 88 1.0 ESE 20 24 11 13 1027.6 1024.7 1.0
23/06:30am 12.3 8.6 10.2 87 1.1 ESE 20 26 11 14 1027.6 1024.7 1.0
23/06:00am 12.6 9.1 11.0 90 0.9 ESE 20 26 11 14 1027.1 1024.2 1.0

Other formats

Comma delimited format used in spreadsheet applications
http://www.bom.gov.au/fwo/IDN60801/IDN60801.94588.axf

JavaScript Object Notation format (JSON) in row-major order
http://www.bom.gov.au/fwo/IDN60801/IDN60801.94588.json

Data quality

Most of these data are generated automatically and are frequently updated. Quality checks on data are not normally performed. It is possible for incorrect values to appear. Refer to information at About Latest Weather Observations and please check the disclaimer before using these data.